sensor_id;sensor_type;location;lat;lon;timestamp;pressure;altitude;pressure_sealevel;temperature;humidity
69405;BME280;57084;52.046;5.632;2022-11-20T00:00:00;101300;;;1.7;59.6
69405;BME280;57084;52.046;5.632;2022-11-20T00:01:03;101290;;;1.7;59.6
69405;BME280;57084;52.046;5.632;2022-11-20T00:02:00;101290;;;1.7;59.6
69405;BME280;57084;52.046;5.632;2022-11-20T00:03:00;101290;;;1.7;59.7
69405;BME280;57084;52.046;5.632;2022-11-20T00:04:00;101290;;;1.7;59.7
69405;BME280;57084;52.046;5.632;2022-11-20T00:05:00;101280;;;1.7;59.7
69405;BME280;57084;52.046;5.632;2022-11-20T00:06:00;101280;;;1.7;59.7
69405;BME280;57084;52.046;5.632;2022-11-20T00:07:00;101280;;;1.7;59.7
69405;BME280;57084;52.046;5.632;2022-11-20T00:08:00;101280;;;1.7;59.7
69405;BME280;57084;52.046;5.632;2022-11-20T00:09:00;101280;;;1.7;59.7
69405;BME280;57084;52.046;5.632;2022-11-20T00:10:00;101280;;;1.7;59.7
69405;BME280;57084;52.046;5.632;2022-11-20T00:11:02;101280;;;1.7;59.7
69405;BME280;57084;52.046;5.632;2022-11-20T00:12:00;101280;;;1.7;59.7
69405;BME280;57084;52.046;5.632;2022-11-20T00:13:00;101280;;;1.7;59.7
69405;BME280;57084;52.046;5.632;2022-11-20T00:14:00;101280;;;1.7;59.7
69405;BME280;57084;52.046;5.632;2022-11-20T00:15:00;101290;;;1.7;59.7
69405;BME280;57084;52.046;5.632;2022-11-20T00:16:00;101290;;;1.7;59.7
69405;BME280;57084;52.046;5.632;2022-11-20T00:17:00;101280;;;1.7;59.7
69405;BME280;57084;52.046;5.632;2022-11-20T00:18:00;101280;;;1.7;59.7
69405;BME280;57084;52.046;5.632;2022-11-20T00:19:00;101280;;;1.6;59.7
69405;BME280;57084;52.046;5.632;2022-11-20T00:20:00;101280;;;1.6;59.7
69405;BME280;57084;52.046;5.632;2022-11-20T00:21:00;101280;;;1.6;59.7
69405;BME280;57084;52.046;5.632;2022-11-20T00:22:00;101280;;;1.6;59.7
69405;BME280;57084;52.046;5.632;2022-11-20T00:23:00;101280;;;1.6;59.8
69405;BME280;57084;52.046;5.632;2022-11-20T00:24:00;101280;;;1.6;59.8
69405;BME280;57084;52.046;5.632;2022-11-20T00:25:00;101270;;;1.6;59.8
69405;BME280;57084;52.046;5.632;2022-11-20T00:26:01;101270;;;1.6;59.8
69405;BME280;57084;52.046;5.632;2022-11-20T00:27:00;101280;;;1.6;59.8
69405;BME280;57084;52.046;5.632;2022-11-20T00:28:00;101280;;;1.6;59.8
69405;BME280;57084;52.046;5.632;2022-11-20T00:29:00;101280;;;1.6;59.9
69405;BME280;57084;52.046;5.632;2022-11-20T00:30:00;101280;;;1.6;59.9
69405;BME280;57084;52.046;5.632;2022-11-20T00:31:00;101280;;;1.5;59.9
69405;BME280;57084;52.046;5.632;2022-11-20T00:32:00;101280;;;1.5;59.9
69405;BME280;57084;52.046;5.632;2022-11-20T00:33:00;101280;;;1.5;59.9
69405;BME280;57084;52.046;5.632;2022-11-20T00:34:00;101280;;;1.5;59.9
69405;BME280;57084;52.046;5.632;2022-11-20T00:35:00;101270;;;1.5;59.9
69405;BME280;57084;52.046;5.632;2022-11-20T00:36:00;101270;;;1.5;59.9
69405;BME280;57084;52.046;5.632;2022-11-20T00:37:00;101270;;;1.5;59.9
69405;BME280;57084;52.046;5.632;2022-11-20T00:38:00;101270;;;1.5;59.9
69405;BME280;57084;52.046;5.632;2022-11-20T00:39:00;101270;;;1.5;59.9
69405;BME280;57084;52.046;5.632;2022-11-20T00:40:00;101270;;;1.5;59.9
69405;BME280;57084;52.046;5.632;2022-11-20T00:41:00;101270;;;1.5;59.9
69405;BME280;57084;52.046;5.632;2022-11-20T00:42:00;101270;;;1.5;59.9
69405;BME280;57084;52.046;5.632;2022-11-20T00:43:00;101270;;;1.4;60.0
69405;BME280;57084;52.046;5.632;2022-11-20T00:44:00;101270;;;1.4;60.0
69405;BME280;57084;52.046;5.632;2022-11-20T00:45:00;101270;;;1.4;60.0
69405;BME280;57084;52.046;5.632;2022-11-20T00:46:00;101270;;;1.4;60.0
69405;BME280;57084;52.046;5.632;2022-11-20T00:47:00;101270;;;1.4;60.0
69405;BME280;57084;52.046;5.632;2022-11-20T00:48:00;101270;;;1.4;60.0
69405;BME280;57084;52.046;5.632;2022-11-20T00:49:00;101280;;;1.4;60.0
69405;BME280;57084;52.046;5.632;2022-11-20T00:50:00;101280;;;1.4;60.0
69405;BME280;57084;52.046;5.632;2022-11-20T00:51:00;101280;;;1.4;60.1
69405;BME280;57084;52.046;5.632;2022-11-20T00:52:00;101280;;;1.4;60.1
69405;BME280;57084;52.046;5.632;2022-11-20T00:53:00;101280;;;1.4;60.1
69405;BME280;57084;52.046;5.632;2022-11-20T00:54:00;101280;;;1.4;60.1
69405;BME280;57084;52.046;5.632;2022-11-20T00:55:00;101270;;;1.4;60.1
69405;BME280;57084;52.046;5.632;2022-11-20T00:56:00;101270;;;1.4;60.1
69405;BME280;57084;52.046;5.632;2022-11-20T00:57:00;101270;;;1.4;60.0
69405;BME280;57084;52.046;5.632;2022-11-20T00:58:00;101270;;;1.4;60.0
69405;BME280;57084;52.046;5.632;2022-11-20T00:59:00;101270;;;1.3;60.1
69405;BME280;57084;52.046;5.632;2022-11-20T01:00:00;101270;;;1.3;60.1
69405;BME280;57084;52.046;5.632;2022-11-20T01:01:00;101270;;;1.3;60.1
69405;BME280;57084;52.046;5.632;2022-11-20T01:02:00;101270;;;1.3;60.1
69405;BME280;57084;52.046;5.632;2022-11-20T01:03:00;101280;;;1.3;60.2
69405;BME280;57084;52.046;5.632;2022-11-20T01:04:00;101280;;;1.3;60.2
69405;BME280;57084;52.046;5.632;2022-11-20T01:05:00;101280;;;1.3;60.2
69405;BME280;57084;52.046;5.632;2022-11-20T01:06:00;101280;;;1.3;60.2
69405;BME280;57084;52.046;5.632;2022-11-20T01:07:00;101280;;;1.2;60.2
69405;BME280;57084;52.046;5.632;2022-11-20T01:08:00;101280;;;1.2;60.2
69405;BME280;57084;52.046;5.632;2022-11-20T01:09:00;101270;;;1.2;60.2
69405;BME280;57084;52.046;5.632;2022-11-20T01:10:00;101270;;;1.2;60.2
69405;BME280;57084;52.046;5.632;2022-11-20T01:11:00;101260;;;1.2;60.2
69405;BME280;57084;52.046;5.632;2022-11-20T01:12:00;101260;;;1.2;60.2
69405;BME280;57084;52.046;5.632;2022-11-20T01:13:00;101260;;;1.2;60.3
69405;BME280;57084;52.046;5.632;2022-11-20T01:14:00;101260;;;1.2;60.3
69405;BME280;57084;52.046;5.632;2022-11-20T01:15:00;101260;;;1.2;60.3
69405;BME280;57084;52.046;5.632;2022-11-20T01:16:01;101260;;;1.2;60.3
69405;BME280;57084;52.046;5.632;2022-11-20T01:17:00;101260;;;1.2;60.2
69405;BME280;57084;52.046;5.632;2022-11-20T01:18:00;101260;;;1.2;60.2
69405;BME280;57084;52.046;5.632;2022-11-20T01:19:00;101250;;;1.2;60.2
69405;BME280;57084;52.046;5.632;2022-11-20T01:20:00;101250;;;1.2;60.2
69405;BME280;57084;52.046;5.632;2022-11-20T01:21:00;101250;;;1.2;60.2
69405;BME280;57084;52.046;5.632;2022-11-20T01:22:00;101250;;;1.2;60.2
69405;BME280;57084;52.046;5.632;2022-11-20T01:23:00;101240;;;1.2;60.2
69405;BME280;57084;52.046;5.632;2022-11-20T01:24:00;101240;;;1.2;60.2
69405;BME280;57084;52.046;5.632;2022-11-20T01:25:00;101240;;;1.2;60.2
69405;BME280;57084;52.046;5.632;2022-11-20T01:26:00;101240;;;1.2;60.2
69405;BME280;57084;52.046;5.632;2022-11-20T01:27:00;101240;;;1.2;60.2
69405;BME280;57084;52.046;5.632;2022-11-20T01:28:00;101240;;;1.2;60.2
69405;BME280;57084;52.046;5.632;2022-11-20T01:29:00;101240;;;1.2;60.2
69405;BME280;57084;52.046;5.632;2022-11-20T01:30:00;101240;;;1.2;60.2
69405;BME280;57084;52.046;5.632;2022-11-20T01:31:00;101240;;;1.2;60.2
69405;BME280;57084;52.046;5.632;2022-11-20T01:32:00;101240;;;1.2;60.2
69405;BME280;57084;52.046;5.632;2022-11-20T01:33:00;101240;;;1.2;60.2
69405;BME280;57084;52.046;5.632;2022-11-20T01:34:01;101240;;;1.2;60.2
69405;BME280;57084;52.046;5.632;2022-11-20T01:35:00;101240;;;1.2;60.2
69405;BME280;57084;52.046;5.632;2022-11-20T01:36:03;101240;;;1.2;60.2
69405;BME280;57084;52.046;5.632;2022-11-20T01:37:00;101240;;;1.2;60.2
69405;BME280;57084;52.046;5.632;2022-11-20T01:38:03;101240;;;1.2;60.2
69405;BME280;57084;52.046;5.632;2022-11-20T01:39:01;101230;;;1.1;60.2
69405;BME280;57084;52.046;5.632;2022-11-20T01:40:00;101230;;;1.1;60.2
69405;BME280;57084;52.046;5.632;2022-11-20T01:41:00;101230;;;1.1;60.2
69405;BME280;57084;52.046;5.632;2022-11-20T01:42:00;101230;;;1.1;60.2
69405;BME280;57084;52.046;5.632;2022-11-20T01:43:06;101240;;;1.1;60.3
69405;BME280;57084;52.046;5.632;2022-11-20T01:44:00;101240;;;1.1;60.3
69405;BME280;57084;52.046;5.632;2022-11-20T01:45:00;101240;;;1.1;60.3
69405;BME280;57084;52.046;5.632;2022-11-20T01:46:01;101240;;;1.1;60.3
69405;BME280;57084;52.046;5.632;2022-11-20T01:47:00;101240;;;1.1;60.3
69405;BME280;57084;52.046;5.632;2022-11-20T01:48:00;101240;;;1.1;60.3
69405;BME280;57084;52.046;5.632;2022-11-20T01:49:00;101240;;;1.0;60.4
69405;BME280;57084;52.046;5.632;2022-11-20T01:50:01;101240;;;1.0;60.4
69405;BME280;57084;52.046;5.632;2022-11-20T01:51:00;101240;;;1.0;60.4
69405;BME280;57084;52.046;5.632;2022-11-20T01:52:00;101240;;;1.0;60.4
69405;BME280;57084;52.046;5.632;2022-11-20T01:53:00;101250;;;1.0;60.4
69405;BME280;57084;52.046;5.632;2022-11-20T01:54:00;101250;;;1.0;60.4
69405;BME280;57084;52.046;5.632;2022-11-20T01:55:00;101240;;;1.0;60.4
69405;BME280;57084;52.046;5.632;2022-11-20T01:56:00;101240;;;1.0;60.4
69405;BME280;57084;52.046;5.632;2022-11-20T01:57:00;101240;;;1.0;60.4
69405;BME280;57084;52.046;5.632;2022-11-20T01:58:00;101240;;;1.0;60.4
69405;BME280;57084;52.046;5.632;2022-11-20T01:59:00;101240;;;1.0;60.4
69405;BME280;57084;52.046;5.632;2022-11-20T02:00:02;101240;;;1.0;60.4
69405;BME280;57084;52.046;5.632;2022-11-20T02:01:00;101240;;;0.9;60.4
69405;BME280;57084;52.046;5.632;2022-11-20T02:02:00;101240;;;0.9;60.4
69405;BME280;57084;52.046;5.632;2022-11-20T02:03:00;101240;;;0.9;60.4
69405;BME280;57084;52.046;5.632;2022-11-20T02:04:00;101240;;;0.9;60.4
69405;BME280;57084;52.046;5.632;2022-11-20T02:05:00;101240;;;0.9;60.5
69405;BME280;57084;52.046;5.632;2022-11-20T02:06:02;101240;;;0.9;60.5
69405;BME280;57084;52.046;5.632;2022-11-20T02:07:00;101250;;;0.9;60.4
69405;BME280;57084;52.046;5.632;2022-11-20T02:08:00;101250;;;0.9;60.4
69405;BME280;57084;52.046;5.632;2022-11-20T02:09:00;101250;;;0.9;60.4
69405;BME280;57084;52.046;5.632;2022-11-20T02:10:00;101250;;;0.9;60.4
69405;BME280;57084;52.046;5.632;2022-11-20T02:11:00;101240;;;0.9;60.4
69405;BME280;57084;52.046;5.632;2022-11-20T02:12:00;101240;;;0.9;60.4
69405;BME280;57084;52.046;5.632;2022-11-20T02:13:00;101240;;;0.9;60.4
69405;BME280;57084;52.046;5.632;2022-11-20T02:14:00;101240;;;0.9;60.4
69405;BME280;57084;52.046;5.632;2022-11-20T02:15:00;101240;;;0.9;60.4
69405;BME280;57084;52.046;5.632;2022-11-20T02:16:00;101240;;;0.9;60.4
69405;BME280;57084;52.046;5.632;2022-11-20T02:17:00;101240;;;0.9;60.4
69405;BME280;57084;52.046;5.632;2022-11-20T02:18:00;101240;;;0.9;60.4
69405;BME280;57084;52.046;5.632;2022-11-20T02:19:00;101240;;;0.9;60.5
69405;BME280;57084;52.046;5.632;2022-11-20T02:20:00;101240;;;0.9;60.5
69405;BME280;57084;52.046;5.632;2022-11-20T02:21:01;101240;;;0.9;60.5
69405;BME280;57084;52.046;5.632;2022-11-20T02:22:00;101240;;;0.9;60.5
69405;BME280;57084;52.046;5.632;2022-11-20T02:23:01;101240;;;0.9;60.5
69405;BME280;57084;52.046;5.632;2022-11-20T02:24:00;101240;;;0.9;60.5
69405;BME280;57084;52.046;5.632;2022-11-20T02:25:00;101230;;;0.9;60.5
69405;BME280;57084;52.046;5.632;2022-11-20T02:26:00;101230;;;0.9;60.5
69405;BME280;57084;52.046;5.632;2022-11-20T02:27:01;101230;;;0.9;60.5
69405;BME280;57084;52.046;5.632;2022-11-20T02:28:00;101230;;;0.9;60.5
69405;BME280;57084;52.046;5.632;2022-11-20T02:29:00;101230;;;0.8;60.5
69405;BME280;57084;52.046;5.632;2022-11-20T02:30:00;101230;;;0.8;60.5
69405;BME280;57084;52.046;5.632;2022-11-20T02:31:00;101230;;;0.8;60.5
69405;BME280;57084;52.046;5.632;2022-11-20T02:32:00;101230;;;0.8;60.5
69405;BME280;57084;52.046;5.632;2022-11-20T02:33:00;101230;;;0.8;60.5
69405;BME280;57084;52.046;5.632;2022-11-20T02:34:00;101230;;;0.8;60.5
69405;BME280;57084;52.046;5.632;2022-11-20T02:35:06;101230;;;0.8;60.6
69405;BME280;57084;52.046;5.632;2022-11-20T02:36:00;101230;;;0.8;60.6
69405;BME280;57084;52.046;5.632;2022-11-20T02:37:00;101230;;;0.8;60.6
69405;BME280;57084;52.046;5.632;2022-11-20T02:38:00;101230;;;0.8;60.6
69405;BME280;57084;52.046;5.632;2022-11-20T02:39:00;101230;;;0.8;60.6
69405;BME280;57084;52.046;5.632;2022-11-20T02:40:00;101230;;;0.8;60.6
69405;BME280;57084;52.046;5.632;2022-11-20T02:41:00;101230;;;0.8;60.6
69405;BME280;57084;52.046;5.632;2022-11-20T02:42:00;101230;;;0.8;60.6
69405;BME280;57084;52.046;5.632;2022-11-20T02:43:00;101230;;;0.8;60.6
69405;BME280;57084;52.046;5.632;2022-11-20T02:44:00;101230;;;0.8;60.6
69405;BME280;57084;52.046;5.632;2022-11-20T02:45:00;101220;;;0.7;60.6
69405;BME280;57084;52.046;5.632;2022-11-20T02:46:00;101220;;;0.7;60.6
69405;BME280;57084;52.046;5.632;2022-11-20T02:47:00;101230;;;0.7;60.6
69405;BME280;57084;52.046;5.632;2022-11-20T02:48:00;101230;;;0.7;60.6
69405;BME280;57084;52.046;5.632;2022-11-20T02:49:00;101220;;;0.7;60.7
69405;BME280;57084;52.046;5.632;2022-11-20T02:50:00;101220;;;0.7;60.7
69405;BME280;57084;52.046;5.632;2022-11-20T02:51:00;101220;;;0.7;60.7
69405;BME280;57084;52.046;5.632;2022-11-20T02:52:00;101220;;;0.7;60.7
69405;BME280;57084;52.046;5.632;2022-11-20T02:53:00;101210;;;0.7;60.7
69405;BME280;57084;52.046;5.632;2022-11-20T02:54:00;101210;;;0.7;60.7
69405;BME280;57084;52.046;5.632;2022-11-20T02:55:00;101210;;;0.7;60.7
69405;BME280;57084;52.046;5.632;2022-11-20T02:56:00;101210;;;0.7;60.7
69405;BME280;57084;52.046;5.632;2022-11-20T02:57:00;101210;;;0.7;60.7
69405;BME280;57084;52.046;5.632;2022-11-20T02:58:00;101210;;;0.7;60.7
69405;BME280;57084;52.046;5.632;2022-11-20T02:59:00;101200;;;0.7;60.7
69405;BME280;57084;52.046;5.632;2022-11-20T03:00:00;101200;;;0.7;60.7
69405;BME280;57084;52.046;5.632;2022-11-20T03:01:00;101200;;;0.7;60.6
69405;BME280;57084;52.046;5.632;2022-11-20T03:02:00;101200;;;0.7;60.6
69405;BME280;57084;52.046;5.632;2022-11-20T03:03:00;101200;;;0.7;60.6
69405;BME280;57084;52.046;5.632;2022-11-20T03:04:00;101200;;;0.7;60.6
69405;BME280;57084;52.046;5.632;2022-11-20T03:05:00;101200;;;0.7;60.7
69405;BME280;57084;52.046;5.632;2022-11-20T03:06:00;101200;;;0.7;60.7
69405;BME280;57084;52.046;5.632;2022-11-20T03:07:00;101200;;;0.7;60.6
69405;BME280;57084;52.046;5.632;2022-11-20T03:08:00;101200;;;0.7;60.6
69405;BME280;57084;52.046;5.632;2022-11-20T03:09:00;101200;;;0.7;60.6
69405;BME280;57084;52.046;5.632;2022-11-20T03:10:00;101200;;;0.7;60.6
69405;BME280;57084;52.046;5.632;2022-11-20T03:11:02;101190;;;0.7;60.7
69405;BME280;57084;52.046;5.632;2022-11-20T03:12:00;101190;;;0.7;60.7
69405;BME280;57084;52.046;5.632;2022-11-20T03:13:00;101200;;;0.7;60.6
69405;BME280;57084;52.046;5.632;2022-11-20T03:14:01;101200;;;0.7;60.6
69405;BME280;57084;52.046;5.632;2022-11-20T03:15:00;101190;;;0.7;60.7
69405;BME280;57084;52.046;5.632;2022-11-20T03:16:04;101190;;;0.7;60.7
69405;BME280;57084;52.046;5.632;2022-11-20T03:17:00;101190;;;0.7;60.6
69405;BME280;57084;52.046;5.632;2022-11-20T03:18:00;101190;;;0.7;60.6
69405;BME280;57084;52.046;5.632;2022-11-20T03:19:00;101190;;;0.7;60.7
69405;BME280;57084;52.046;5.632;2022-11-20T03:20:00;101190;;;0.7;60.7
69405;BME280;57084;52.046;5.632;2022-11-20T03:21:00;101190;;;0.7;60.7
69405;BME280;57084;52.046;5.632;2022-11-20T03:22:00;101190;;;0.7;60.7
69405;BME280;57084;52.046;5.632;2022-11-20T03:23:00;101190;;;0.7;60.7
69405;BME280;57084;52.046;5.632;2022-11-20T03:24:00;101190;;;0.7;60.7
69405;BME280;57084;52.046;5.632;2022-11-20T03:25:00;101190;;;0.6;60.7
69405;BME280;57084;52.046;5.632;2022-11-20T03:26:16;101190;;;0.6;60.7
69405;BME280;57084;52.046;5.632;2022-11-20T03:27:00;101190;;;0.6;60.7
69405;BME280;57084;52.046;5.632;2022-11-20T03:28:00;101190;;;0.6;60.7
69405;BME280;57084;52.046;5.632;2022-11-20T03:29:00;101190;;;0.6;60.8
69405;BME280;57084;52.046;5.632;2022-11-20T03:30:00;101190;;;0.6;60.8
69405;BME280;57084;52.046;5.632;2022-11-20T03:31:04;101190;;;0.6;60.8
69405;BME280;57084;52.046;5.632;2022-11-20T03:32:00;101190;;;0.6;60.8
69405;BME280;57084;52.046;5.632;2022-11-20T03:33:00;101190;;;0.6;60.8
69405;BME280;57084;52.046;5.632;2022-11-20T03:34:00;101190;;;0.6;60.8
69405;BME280;57084;52.046;5.632;2022-11-20T03:35:00;101190;;;0.5;60.8
69405;BME280;57084;52.046;5.632;2022-11-20T03:36:00;101190;;;0.5;60.8
69405;BME280;57084;52.046;5.632;2022-11-20T03:37:00;101180;;;0.5;60.8
69405;BME280;57084;52.046;5.632;2022-11-20T03:38:00;101180;;;0.5;60.8
69405;BME280;57084;52.046;5.632;2022-11-20T03:39:00;101180;;;0.5;60.8
69405;BME280;57084;52.046;5.632;2022-11-20T03:40:00;101180;;;0.5;60.8
69405;BME280;57084;52.046;5.632;2022-11-20T03:41:00;101180;;;0.5;60.8
69405;BME280;57084;52.046;5.632;2022-11-20T03:42:00;101180;;;0.5;60.8
69405;BME280;57084;52.046;5.632;2022-11-20T03:43:00;101180;;;0.5;60.8
69405;BME280;57084;52.046;5.632;2022-11-20T03:44:01;101180;;;0.5;60.8
69405;BME280;57084;52.046;5.632;2022-11-20T03:45:00;101180;;;0.5;60.8
69405;BME280;57084;52.046;5.632;2022-11-20T03:46:00;101180;;;0.5;60.8
69405;BME280;57084;52.046;5.632;2022-11-20T03:47:00;101180;;;0.5;60.8
69405;BME280;57084;52.046;5.632;2022-11-20T03:48:00;101180;;;0.5;60.8
69405;BME280;57084;52.046;5.632;2022-11-20T03:49:00;101180;;;0.5;60.8
69405;BME280;57084;52.046;5.632;2022-11-20T03:50:00;101180;;;0.5;60.8
69405;BME280;57084;52.046;5.632;2022-11-20T03:51:08;101180;;;0.5;60.8
69405;BME280;57084;52.046;5.632;2022-11-20T03:52:00;101180;;;0.5;60.8
69405;BME280;57084;52.046;5.632;2022-11-20T03:53:00;101180;;;0.5;60.8
69405;BME280;57084;52.046;5.632;2022-11-20T03:54:00;101180;;;0.5;60.8
69405;BME280;57084;52.046;5.632;2022-11-20T03:55:00;101170;;;0.5;60.9
69405;BME280;57084;52.046;5.632;2022-11-20T03:56:00;101170;;;0.5;60.9
69405;BME280;57084;52.046;5.632;2022-11-20T03:57:00;101180;;;0.5;60.9
69405;BME280;57084;52.046;5.632;2022-11-20T03:58:00;101180;;;0.5;60.9
69405;BME280;57084;52.046;5.632;2022-11-20T03:59:00;101170;;;0.5;60.9
69405;BME280;57084;52.046;5.632;2022-11-20T04:00:00;101170;;;0.5;60.9
69405;BME280;57084;52.046;5.632;2022-11-20T04:01:04;101170;;;0.5;60.9
69405;BME280;57084;52.046;5.632;2022-11-20T04:02:00;101170;;;0.5;60.9
69405;BME280;57084;52.046;5.632;2022-11-20T04:03:00;101170;;;0.5;60.9
69405;BME280;57084;52.046;5.632;2022-11-20T04:04:00;101170;;;0.5;60.9
69405;BME280;57084;52.046;5.632;2022-11-20T04:05:00;101160;;;0.5;60.9
69405;BME280;57084;52.046;5.632;2022-11-20T04:06:01;101160;;;0.5;60.9
69405;BME280;57084;52.046;5.632;2022-11-20T04:07:00;101160;;;0.4;60.9
69405;BME280;57084;52.046;5.632;2022-11-20T04:08:00;101160;;;0.4;60.9
69405;BME280;57084;52.046;5.632;2022-11-20T04:09:00;101170;;;0.4;61.0
69405;BME280;57084;52.046;5.632;2022-11-20T04:10:00;101170;;;0.4;61.0
69405;BME280;57084;52.046;5.632;2022-11-20T04:11:08;101160;;;0.4;61.0
69405;BME280;57084;52.046;5.632;2022-11-20T04:12:00;101160;;;0.4;61.0
69405;BME280;57084;52.046;5.632;2022-11-20T04:13:00;101160;;;0.4;61.0
69405;BME280;57084;52.046;5.632;2022-11-20T04:14:01;101160;;;0.4;61.0
69405;BME280;57084;52.046;5.632;2022-11-20T04:15:00;101160;;;0.4;61.0
69405;BME280;57084;52.046;5.632;2022-11-20T04:16:00;101160;;;0.4;61.0
69405;BME280;57084;52.046;5.632;2022-11-20T04:17:00;101160;;;0.4;61.0
69405;BME280;57084;52.046;5.632;2022-11-20T04:18:00;101160;;;0.4;61.0
69405;BME280;57084;52.046;5.632;2022-11-20T04:19:01;101160;;;0.4;61.0
69405;BME280;57084;52.046;5.632;2022-11-20T04:20:00;101160;;;0.4;61.0
69405;BME280;57084;52.046;5.632;2022-11-20T04:21:00;101160;;;0.4;61.0
69405;BME280;57084;52.046;5.632;2022-11-20T04:22:00;101160;;;0.4;61.0
69405;BME280;57084;52.046;5.632;2022-11-20T04:23:00;101160;;;0.4;61.0
69405;BME280;57084;52.046;5.632;2022-11-20T04:24:00;101160;;;0.4;61.0
69405;BME280;57084;52.046;5.632;2022-11-20T04:25:00;101160;;;0.4;61.0
69405;BME280;57084;52.046;5.632;2022-11-20T04:26:00;101160;;;0.4;61.0
69405;BME280;57084;52.046;5.632;2022-11-20T04:27:00;101160;;;0.4;61.0
69405;BME280;57084;52.046;5.632;2022-11-20T04:28:00;101160;;;0.4;61.0
69405;BME280;57084;52.046;5.632;2022-11-20T04:29:00;101160;;;0.4;61.0
69405;BME280;57084;52.046;5.632;2022-11-20T04:30:00;101160;;;0.4;61.0
69405;BME280;57084;52.046;5.632;2022-11-20T04:31:01;101170;;;0.4;61.0
69405;BME280;57084;52.046;5.632;2022-11-20T04:32:00;101170;;;0.4;61.0
69405;BME280;57084;52.046;5.632;2022-11-20T04:33:00;101170;;;0.4;61.0
69405;BME280;57084;52.046;5.632;2022-11-20T04:34:00;101170;;;0.4;61.0
69405;BME280;57084;52.046;5.632;2022-11-20T04:35:00;101170;;;0.3;61.0
69405;BME280;57084;52.046;5.632;2022-11-20T04:36:00;101170;;;0.3;61.0
69405;BME280;57084;52.046;5.632;2022-11-20T04:37:00;101160;;;0.3;61.1
69405;BME280;57084;52.046;5.632;2022-11-20T04:38:00;101160;;;0.3;61.1
69405;BME280;57084;52.046;5.632;2022-11-20T04:39:00;101160;;;0.3;61.0
69405;BME280;57084;52.046;5.632;2022-11-20T04:40:00;101160;;;0.3;61.0
69405;BME280;57084;52.046;5.632;2022-11-20T04:41:00;101160;;;0.3;61.1
69405;BME280;57084;52.046;5.632;2022-11-20T04:42:00;101160;;;0.3;61.1
69405;BME280;57084;52.046;5.632;2022-11-20T04:43:00;101150;;;0.3;61.1
69405;BME280;57084;52.046;5.632;2022-11-20T04:44:00;101150;;;0.3;61.1
69405;BME280;57084;52.046;5.632;2022-11-20T04:45:00;101150;;;0.3;61.1
69405;BME280;57084;52.046;5.632;2022-11-20T04:46:00;101150;;;0.3;61.1
69405;BME280;57084;52.046;5.632;2022-11-20T04:47:00;101160;;;0.3;61.1
69405;BME280;57084;52.046;5.632;2022-11-20T04:48:00;101160;;;0.3;61.1
69405;BME280;57084;52.046;5.632;2022-11-20T04:49:00;101150;;;0.3;61.1
69405;BME280;57084;52.046;5.632;2022-11-20T04:50:00;101150;;;0.3;61.1
69405;BME280;57084;52.046;5.632;2022-11-20T04:51:02;101150;;;0.3;61.1
69405;BME280;57084;52.046;5.632;2022-11-20T04:52:00;101150;;;0.3;61.1
69405;BME280;57084;52.046;5.632;2022-11-20T04:53:00;101140;;;0.3;61.1
69405;BME280;57084;52.046;5.632;2022-11-20T04:54:00;101140;;;0.3;61.1
69405;BME280;57084;52.046;5.632;2022-11-20T04:55:00;101140;;;0.2;61.1
69405;BME280;57084;52.046;5.632;2022-11-20T04:56:00;101140;;;0.2;61.1
69405;BME280;57084;52.046;5.632;2022-11-20T04:57:00;101130;;;0.2;61.1
69405;BME280;57084;52.046;5.632;2022-11-20T04:58:00;101130;;;0.2;61.1
69405;BME280;57084;52.046;5.632;2022-11-20T04:59:00;101130;;;0.2;61.1
69405;BME280;57084;52.046;5.632;2022-11-20T05:00:00;101130;;;0.2;61.1
69405;BME280;57084;52.046;5.632;2022-11-20T05:01:00;101130;;;0.2;61.1
69405;BME280;57084;52.046;5.632;2022-11-20T05:02:00;101130;;;0.2;61.1
69405;BME280;57084;52.046;5.632;2022-11-20T05:03:00;101130;;;0.2;61.1
69405;BME280;57084;52.046;5.632;2022-11-20T05:04:00;101130;;;0.2;61.1
69405;BME280;57084;52.046;5.632;2022-11-20T05:05:00;101120;;;0.2;61.2
69405;BME280;57084;52.046;5.632;2022-11-20T05:06:00;101120;;;0.2;61.2
69405;BME280;57084;52.046;5.632;2022-11-20T05:07:00;101120;;;0.2;61.2
69405;BME280;57084;52.046;5.632;2022-11-20T05:08:00;101120;;;0.2;61.2
69405;BME280;57084;52.046;5.632;2022-11-20T05:09:00;101120;;;0.2;61.1
69405;BME280;57084;52.046;5.632;2022-11-20T05:10:00;101120;;;0.2;61.1
69405;BME280;57084;52.046;5.632;2022-11-20T05:11:00;101120;;;0.2;61.2
69405;BME280;57084;52.046;5.632;2022-11-20T05:12:00;101120;;;0.2;61.2
69405;BME280;57084;52.046;5.632;2022-11-20T05:13:00;101120;;;0.2;61.2
69405;BME280;57084;52.046;5.632;2022-11-20T05:14:00;101120;;;0.2;61.2
69405;BME280;57084;52.046;5.632;2022-11-20T05:15:00;101120;;;0.2;61.2
69405;BME280;57084;52.046;5.632;2022-11-20T05:16:01;101120;;;0.2;61.2
69405;BME280;57084;52.046;5.632;2022-11-20T05:17:00;101120;;;0.2;61.2
69405;BME280;57084;52.046;5.632;2022-11-20T05:18:00;101120;;;0.2;61.2
69405;BME280;57084;52.046;5.632;2022-11-20T05:19:00;101130;;;0.1;61.3
69405;BME280;57084;52.046;5.632;2022-11-20T05:20:00;101130;;;0.1;61.3
69405;BME280;57084;52.046;5.632;2022-11-20T05:21:00;101140;;;0.1;61.3
69405;BME280;57084;52.046;5.632;2022-11-20T05:22:00;101140;;;0.1;61.3
69405;BME280;57084;52.046;5.632;2022-11-20T05:23:00;101140;;;0.1;61.3
69405;BME280;57084;52.046;5.632;2022-11-20T05:24:00;101140;;;0.1;61.3
69405;BME280;57084;52.046;5.632;2022-11-20T05:25:00;101130;;;0.1;61.2
69405;BME280;57084;52.046;5.632;2022-11-20T05:26:00;101130;;;0.1;61.2
69405;BME280;57084;52.046;5.632;2022-11-20T05:27:00;101120;;;0.1;61.2
69405;BME280;57084;52.046;5.632;2022-11-20T05:28:00;101120;;;0.1;61.2
69405;BME280;57084;52.046;5.632;2022-11-20T05:29:00;101120;;;0.1;61.2
69405;BME280;57084;52.046;5.632;2022-11-20T05:30:00;101120;;;0.1;61.2
69405;BME280;57084;52.046;5.632;2022-11-20T05:31:08;101120;;;0.1;61.2
69405;BME280;57084;52.046;5.632;2022-11-20T05:32:00;101120;;;0.1;61.2
69405;BME280;57084;52.046;5.632;2022-11-20T05:33:00;101120;;;0.1;61.2
69405;BME280;57084;52.046;5.632;2022-11-20T05:34:00;101120;;;0.1;61.2
69405;BME280;57084;52.046;5.632;2022-11-20T05:35:00;101120;;;0.1;61.2
69405;BME280;57084;52.046;5.632;2022-11-20T05:36:00;101120;;;0.1;61.2
69405;BME280;57084;52.046;5.632;2022-11-20T05:37:00;101120;;;0.1;61.2
69405;BME280;57084;52.046;5.632;2022-11-20T05:38:00;101120;;;0.1;61.2
69405;BME280;57084;52.046;5.632;2022-11-20T05:39:00;101120;;;0.1;61.2
69405;BME280;57084;52.046;5.632;2022-11-20T05:40:00;101120;;;0.1;61.2